createdAt,value
2019-02-15T00:01:03.837Z,72.23
2019-02-15T00:03:31.949Z,84.83
2019-02-15T00:06:00.138Z,65.33
2019-02-15T00:08:29.021Z,70.93
2019-02-15T00:11:01.770Z,72.77
2019-02-15T00:13:29.913Z,109.13
2019-02-15T00:15:58.052Z,74.97
2019-02-15T00:18:30.581Z,68.67
2019-02-15T00:21:00.420Z,70.07
2019-02-15T00:23:29.308Z,111.80
2019-02-15T00:25:59.283Z,114.67
2019-02-15T00:28:27.393Z,153.00
2019-02-15T00:30:55.553Z,167.07
2019-02-15T00:33:23.717Z,152.93
2019-02-15T00:35:51.833Z,193.57
2019-02-15T00:38:19.950Z,165.73
2019-02-15T00:40:48.103Z,209.53
2019-02-15T00:43:24.984Z,265.83
2019-02-15T00:46:09.891Z,266.17
2019-02-15T00:48:38.045Z,274.63
2019-02-15T00:51:07.856Z,288.47
2019-02-15T00:53:46.497Z,239.13
2019-02-15T00:56:19.177Z,253.10
2019-02-15T00:58:51.925Z,278.13
2019-02-15T01:01:21.757Z,263.30
2019-02-15T01:03:51.559Z,226.90
2019-02-15T01:06:36.621Z,201.10
2019-02-15T01:09:25.112Z,216.50
2019-02-15T01:11:54.932Z,260.33
2019-02-15T01:14:23.101Z,253.23
2019-02-15T01:16:51.260Z,289.27
2019-02-15T01:19:19.470Z,283.93
2019-02-15T01:21:47.605Z,323.57
2019-02-15T01:24:15.753Z,309.37
2019-02-15T01:26:48.110Z,277.27
2019-02-15T01:29:32.997Z,304.57
2019-02-15T01:32:19.261Z,303.83
2019-02-15T01:34:52.098Z,325.53
2019-02-15T01:37:24.741Z,297.80
2019-02-15T01:40:03.752Z,317.07
2019-02-15T01:42:51.863Z,290.73
2019-02-15T01:45:30.333Z,311.70
2019-02-15T01:47:58.575Z,260.03
2019-02-15T01:50:26.797Z,284.97
2019-02-15T01:52:54.978Z,343.63
2019-02-15T01:55:23.117Z,208.73
2019-02-15T01:57:51.247Z,373.13
2019-02-15T02:00:20.647Z,351.27
2019-02-15T02:02:48.788Z,392.93
2019-02-15T02:05:16.936Z,386.20
2019-02-15T02:07:45.091Z,333.30
2019-02-15T02:10:13.247Z,348.30
2019-02-15T02:12:41.464Z,348.27
2019-02-15T02:15:09.808Z,347.70
2019-02-15T02:17:37.952Z,286.63
2019-02-15T02:20:07.537Z,301.00
2019-02-15T02:22:35.747Z,325.47
2019-02-15T02:25:04.630Z,325.20
2019-02-15T02:27:32.753Z,352.07
2019-02-15T02:30:00.947Z,348.40
2019-02-15T02:32:29.114Z,396.53
2019-02-15T02:34:57.268Z,387.73
2019-02-15T02:37:25.393Z,400.47
2019-02-15T02:39:53.567Z,348.50
2019-02-15T02:42:21.726Z,395.30
2019-02-15T02:44:49.845Z,347.27
2019-02-15T02:47:18.001Z,409.10
2019-02-15T02:49:46.198Z,392.20
2019-02-15T02:52:14.323Z,374.03
2019-02-15T02:54:42.484Z,423.47
2019-02-15T02:57:10.677Z,339.97
2019-02-15T02:59:38.845Z,435.23
2019-02-15T03:02:07.106Z,458.77
2019-02-15T03:04:35.297Z,436.33
2019-02-15T03:07:03.671Z,422.33
2019-02-15T03:09:31.814Z,386.70
2019-02-15T03:12:04.974Z,448.67
2019-02-15T03:14:33.166Z,459.20
2019-02-15T03:17:01.340Z,426.90
2019-02-15T03:19:29.548Z,420.07
2019-02-15T03:21:57.685Z,451.40
2019-02-15T03:24:25.857Z,406.50
2019-02-15T03:26:54.100Z,490.17
2019-02-15T03:29:22.334Z,378.50
2019-02-15T03:31:50.493Z,470.73
2019-02-15T03:34:18.751Z,443.20
2019-02-15T03:37:05.093Z,467.60
2019-02-15T03:42:38.035Z,476.33
2019-02-15T03:45:07.244Z,483.37
2019-02-15T03:47:35.408Z,483.53
2019-02-15T03:50:05.205Z,470.53
2019-02-15T03:52:33.354Z,477.93
2019-02-15T03:55:01.522Z,471.70
2019-02-15T03:57:29.662Z,478.83
2019-02-15T03:59:57.878Z,470.80
2019-02-15T04:02:31.930Z,471.73
2019-02-15T04:05:00.108Z,484.63
2019-02-15T04:07:28.604Z,480.83
2019-02-15T04:10:01.282Z,483.70
2019-02-15T04:12:29.480Z,451.43
2019-02-15T04:14:57.605Z,484.30
2019-02-15T04:17:25.774Z,488.90
2019-02-15T04:19:53.967Z,464.90
2019-02-15T04:22:22.084Z,460.67
2019-02-15T04:24:50.270Z,459.53
2019-02-15T04:27:18.436Z,475.63
2019-02-15T04:29:46.604Z,472.03
2019-02-15T04:32:14.806Z,492.23
2019-02-15T04:34:43.503Z,471.50
2019-02-15T04:37:11.714Z,474.60
2019-02-15T04:39:39.899Z,471.27
2019-02-15T04:42:08.097Z,483.67
2019-02-15T04:44:42.493Z,488.67
2019-02-15T04:47:06.111Z,471.20
2019-02-15T04:49:34.258Z,462.07
2019-02-15T04:52:02.406Z,452.83
2019-02-15T04:54:30.518Z,446.47
2019-02-15T04:56:58.655Z,459.97
2019-02-15T04:59:26.816Z,467.37
2019-02-15T05:01:55.054Z,453.03
2019-02-15T05:04:23.240Z,469.73
2019-02-15T05:06:51.395Z,441.63
2019-02-15T05:09:19.553Z,467.97
2019-02-15T05:11:47.793Z,447.23
2019-02-15T05:14:15.928Z,451.90
2019-02-15T05:16:44.058Z,449.60
2019-02-15T05:19:12.206Z,454.90
2019-02-15T05:21:40.364Z,448.67
2019-02-15T05:24:08.608Z,444.90
2019-02-15T05:26:36.817Z,445.33
2019-02-15T05:29:05.030Z,455.00
2019-02-15T05:31:33.179Z,455.57
2019-02-15T05:34:01.342Z,442.43
2019-02-15T05:36:29.484Z,442.23
2019-02-15T05:38:57.613Z,433.63
2019-02-15T05:41:25.806Z,440.50
2019-02-15T05:43:54.063Z,452.60
2019-02-15T05:46:22.291Z,434.03
2019-02-15T05:48:50.517Z,432.83
2019-02-15T05:51:18.698Z,466.63
2019-02-15T05:53:46.900Z,439.37
2019-02-15T05:56:15.105Z,441.03
2019-02-15T05:58:43.261Z,438.80
2019-02-15T06:01:12.111Z,439.00
2019-02-15T06:03:40.265Z,422.83
2019-02-15T06:06:08.451Z,355.10
2019-02-15T06:08:36.661Z,283.30
2019-02-15T06:11:07.951Z,406.73
2019-02-15T06:13:34.733Z,415.37
2019-02-15T06:16:02.888Z,404.30
2019-02-15T06:18:31.080Z,434.60
2019-02-15T06:20:59.308Z,374.43
2019-02-15T06:23:27.472Z,361.73
2019-02-15T06:25:55.664Z,432.00
2019-02-15T06:28:23.854Z,419.77
2019-02-15T06:30:51.979Z,438.23
2019-02-15T06:33:20.138Z,443.97
2019-02-15T06:35:48.419Z,450.43
2019-02-15T06:38:16.750Z,418.53
2019-02-15T06:40:44.935Z,439.73
2019-02-15T06:43:14.756Z,434.23
2019-02-15T06:45:44.114Z,444.03
2019-02-15T06:48:12.316Z,430.73
2019-02-15T06:50:40.488Z,434.93
2019-02-15T06:53:10.033Z,424.97
2019-02-15T06:55:38.480Z,419.33
2019-02-15T06:58:06.654Z,421.23
2019-02-15T07:00:45.320Z,421.70
2019-02-15T07:03:20.505Z,435.33
2019-02-15T07:05:48.679Z,411.83
2019-02-15T07:08:16.824Z,400.43
2019-02-15T07:10:44.971Z,443.27
2019-02-15T07:13:13.131Z,429.13
2019-02-15T07:15:41.249Z,437.00
2019-02-15T07:18:09.421Z,436.90
2019-02-15T07:20:37.660Z,421.83
2019-02-15T07:23:05.841Z,430.40
2019-02-15T07:25:34.150Z,433.07
2019-02-15T07:28:02.313Z,404.90
2019-02-15T07:30:30.464Z,433.30
2019-02-15T07:32:58.738Z,427.83
2019-02-15T07:35:26.931Z,433.13
2019-02-15T07:37:55.109Z,407.43
2019-02-15T07:40:23.224Z,422.30
2019-02-15T07:42:51.354Z,417.63
2019-02-15T07:45:19.525Z,454.80
2019-02-15T07:47:47.640Z,430.33
2019-02-15T07:50:15.769Z,448.23
2019-02-15T07:52:43.922Z,451.70
2019-02-15T07:55:12.289Z,447.87
2019-02-15T07:57:40.533Z,456.93
2019-02-15T08:00:13.016Z,463.87
2019-02-15T08:02:41.180Z,427.23
2019-02-15T08:05:09.631Z,469.70
2019-02-15T08:07:37.862Z,439.10
2019-02-15T08:10:07.681Z,448.33
2019-02-15T08:12:35.825Z,444.27
2019-02-15T08:15:04.933Z,435.87
2019-02-15T08:17:33.064Z,431.07
2019-02-15T08:20:01.231Z,447.17
2019-02-15T08:22:29.469Z,453.17
2019-02-15T08:24:57.734Z,463.33
2019-02-15T08:27:25.849Z,471.57
2019-02-15T08:29:54.090Z,438.00
2019-02-15T08:32:22.353Z,421.43
2019-02-15T08:34:50.581Z,450.63
2019-02-15T08:37:18.776Z,465.57
2019-02-15T08:39:46.962Z,471.07
2019-02-15T08:42:15.160Z,469.70
2019-02-15T08:44:43.412Z,456.07
2019-02-15T08:47:11.804Z,456.67
2019-02-15T08:49:40.024Z,451.37
2019-02-15T08:52:08.157Z,480.67
2019-02-15T08:54:36.428Z,475.37
2019-02-15T08:57:04.749Z,472.77
2019-02-15T08:59:32.910Z,483.33
2019-02-15T09:02:05.469Z,401.73
2019-02-15T09:04:33.754Z,392.43
2019-02-15T09:07:01.912Z,435.20
2019-02-15T09:09:30.084Z,502.40
2019-02-15T09:11:58.286Z,468.03
2019-02-15T09:14:26.486Z,460.30
2019-02-15T09:16:54.745Z,477.00
2019-02-15T09:19:22.855Z,447.60
2019-02-15T09:21:50.997Z,436.33
2019-02-15T09:24:19.136Z,455.30
2019-02-15T09:26:47.385Z,493.93
2019-02-15T09:29:15.625Z,516.20
2019-02-15T09:31:43.760Z,515.47
2019-02-15T09:34:11.961Z,495.70
2019-02-15T09:39:27.441Z,482.50
2019-02-15T09:41:55.608Z,518.60
2019-02-15T09:44:23.844Z,498.33
2019-02-15T09:46:52.163Z,504.47
2019-02-15T09:49:22.135Z,475.67
2019-02-15T09:51:50.289Z,528.93
2019-02-15T09:54:18.531Z,548.73
2019-02-15T09:56:46.659Z,563.13
2019-02-15T09:59:14.814Z,560.07
2019-02-15T10:01:43.070Z,491.17
2019-02-15T10:04:11.307Z,340.73
2019-02-15T10:06:39.523Z,258.50
2019-02-15T10:09:07.670Z,585.37
2019-02-15T10:11:36.020Z,546.80
2019-02-15T10:14:04.207Z,554.40
2019-02-15T10:16:32.424Z,591.43
2019-02-15T10:19:00.635Z,618.20
2019-02-15T10:21:28.934Z,314.37
2019-02-15T10:23:57.368Z,280.53
2019-02-15T10:26:25.714Z,499.90
2019-02-15T10:28:53.946Z,493.30
2019-02-15T10:31:22.286Z,459.20
2019-02-15T10:33:50.921Z,165.73
2019-02-15T10:36:19.159Z,217.83
2019-02-15T10:38:47.477Z,283.43
2019-02-15T10:41:18.257Z,315.13
2019-02-15T10:43:46.547Z,248.47
2019-02-15T10:46:14.784Z,347.57
2019-02-15T10:48:42.974Z,329.23
2019-02-15T10:51:11.245Z,210.70
2019-02-15T10:53:39.453Z,95.60
2019-02-15T10:56:07.712Z,267.77
2019-02-15T10:58:35.894Z,154.83
2019-02-15T11:01:04.062Z,334.03
2019-02-15T11:03:32.237Z,300.33
2019-02-15T11:06:00.518Z,142.07
2019-02-15T11:08:28.803Z,477.03
2019-02-15T11:10:57.080Z,470.40
2019-02-15T11:13:25.552Z,500.17
2019-02-15T11:15:53.737Z,193.03
2019-02-15T11:18:21.915Z,222.30
2019-02-15T11:20:50.145Z,197.87
2019-02-15T11:23:18.291Z,327.47
2019-02-15T11:25:46.415Z,476.70
2019-02-15T11:28:14.838Z,620.10
2019-02-15T11:30:43.027Z,637.43
2019-02-15T11:33:11.288Z,587.43
2019-02-15T11:35:39.641Z,537.70
2019-02-15T11:38:07.855Z,552.57
2019-02-15T11:40:36.008Z,564.27
2019-02-15T11:43:04.386Z,579.03
2019-02-15T11:45:32.546Z,596.30
2019-02-15T11:48:00.750Z,594.57
2019-02-15T11:50:28.955Z,634.13
2019-02-15T11:52:57.125Z,656.73
2019-02-15T11:55:25.358Z,648.27
2019-02-15T11:57:53.502Z,648.90
2019-02-15T12:00:35.284Z,657.47
2019-02-15T12:03:03.455Z,628.60
2019-02-15T12:05:31.612Z,661.00
2019-02-15T12:07:59.733Z,447.17
2019-02-15T12:10:27.961Z,572.83
2019-02-15T12:12:56.092Z,506.57
2019-02-15T12:15:24.262Z,409.93
2019-02-15T12:17:52.439Z,657.33
2019-02-15T12:20:20.605Z,526.50
2019-02-15T12:22:48.817Z,591.80
2019-02-15T12:25:16.994Z,463.37
2019-02-15T12:27:45.157Z,564.87
2019-02-15T12:30:13.987Z,668.60
2019-02-15T12:32:42.232Z,661.60
2019-02-15T12:35:10.800Z,664.73
2019-02-15T12:37:38.947Z,650.70
2019-02-15T12:40:08.170Z,663.70
2019-02-15T12:42:36.389Z,673.53
2019-02-15T12:45:06.009Z,644.50
2019-02-15T12:47:34.245Z,553.10
2019-02-15T12:50:02.418Z,542.97
2019-02-15T12:52:30.570Z,662.27
2019-02-15T12:54:58.765Z,610.27
2019-02-15T12:57:26.915Z,615.20
2019-02-15T12:59:55.150Z,668.57
2019-02-15T13:02:23.268Z,687.77
2019-02-15T13:04:51.400Z,685.27
2019-02-15T13:07:19.523Z,676.00
2019-02-15T13:09:47.686Z,674.50
2019-02-15T13:12:15.804Z,661.43
2019-02-15T13:14:43.948Z,647.63
2019-02-15T13:17:12.083Z,601.33
2019-02-15T13:19:40.218Z,591.57
2019-02-15T13:22:08.358Z,682.00
2019-02-15T13:24:36.500Z,665.63
2019-02-15T13:27:04.656Z,687.40
2019-02-15T13:29:32.829Z,677.03
2019-02-15T13:32:00.997Z,681.20
2019-02-15T13:34:29.188Z,672.67
2019-02-15T13:36:57.325Z,309.60
2019-02-15T13:39:25.507Z,679.93
2019-02-15T13:41:53.696Z,689.80
2019-02-15T13:44:21.885Z,684.80
2019-02-15T13:46:50.049Z,684.93
2019-02-15T13:49:18.215Z,699.20
2019-02-15T13:51:46.336Z,672.97
2019-02-15T13:54:14.485Z,675.77
2019-02-15T13:56:42.640Z,687.37
2019-02-15T13:59:10.840Z,706.73
2019-02-15T14:01:38.994Z,681.63
2019-02-15T14:04:07.213Z,690.43
2019-02-15T14:06:35.399Z,689.50
2019-02-15T14:09:04.721Z,692.43
2019-02-15T14:11:32.911Z,681.60
2019-02-15T14:14:01.028Z,688.80
2019-02-15T14:16:29.224Z,681.90
2019-02-15T14:18:57.386Z,709.13
2019-02-15T14:21:25.593Z,683.40
2019-02-15T14:23:53.734Z,674.90
2019-02-15T14:26:21.869Z,679.03
2019-02-15T14:28:50.174Z,680.93
2019-02-15T14:31:18.309Z,700.50
2019-02-15T14:33:46.423Z,722.60
2019-02-15T14:36:14.589Z,707.80
2019-02-15T14:38:42.705Z,697.63
2019-02-15T14:41:10.841Z,713.87
2019-02-15T14:43:39.093Z,722.33
2019-02-15T14:46:07.227Z,723.40
2019-02-15T14:48:35.357Z,730.97
2019-02-15T14:51:03.519Z,744.53
2019-02-15T14:53:31.706Z,739.00
2019-02-15T14:55:59.866Z,740.53
2019-02-15T14:58:28.117Z,739.97
2019-02-15T15:00:56.321Z,741.43
2019-02-15T15:03:24.469Z,738.97
2019-02-15T15:05:54.772Z,733.10
2019-02-15T15:08:22.497Z,738.13
2019-02-15T15:10:50.633Z,709.10
2019-02-15T15:13:18.783Z,753.13
2019-02-15T15:15:47.054Z,727.67
2019-02-15T15:18:15.336Z,740.57
2019-02-15T15:20:43.568Z,709.67
2019-02-15T15:23:11.759Z,697.67
2019-02-15T15:25:39.984Z,700.50
2019-02-15T15:28:16.462Z,714.80
2019-02-15T15:30:44.609Z,706.33
2019-02-15T15:33:12.851Z,705.73
2019-02-15T15:35:41.141Z,714.50
2019-02-15T15:38:09.320Z,731.03
2019-02-15T15:40:37.459Z,696.40
2019-02-15T15:43:05.601Z,697.67
2019-02-15T15:45:33.829Z,718.13
2019-02-15T15:48:01.945Z,698.47
2019-02-15T15:50:32.824Z,696.60
2019-02-15T15:53:00.947Z,693.80
2019-02-15T15:55:32.249Z,729.30
2019-02-15T15:58:00.396Z,702.53
2019-02-15T16:00:38.465Z,688.17
2019-02-15T16:02:58.480Z,667.20
2019-02-15T16:05:26.592Z,696.43
2019-02-15T16:07:54.786Z,681.53
2019-02-15T16:10:22.918Z,681.87
2019-02-15T16:12:51.069Z,685.83
2019-02-15T16:15:33.011Z,674.27
2019-02-15T16:18:04.482Z,684.13
2019-02-15T16:20:32.604Z,689.77
2019-02-15T16:23:00.751Z,680.27
2019-02-15T16:25:28.885Z,706.47
2019-02-15T16:27:57.042Z,705.40
2019-02-15T16:30:25.244Z,705.90
2019-02-15T16:32:53.423Z,694.03
2019-02-15T16:35:21.536Z,683.80
2019-02-15T16:37:49.670Z,714.70
2019-02-15T16:40:17.837Z,700.10
2019-02-15T16:42:46.020Z,681.40
2019-02-15T16:45:14.529Z,690.63
2019-02-15T16:47:42.750Z,693.07
2019-02-15T16:50:11.345Z,691.40
2019-02-15T16:52:39.485Z,699.83
2019-02-15T16:55:12.825Z,693.30
2019-02-15T16:57:38.069Z,712.30
2019-02-15T17:00:07.901Z,717.97
2019-02-15T17:02:36.110Z,702.17
2019-02-15T17:05:04.995Z,709.03
2019-02-15T17:10:07.952Z,9.50
2019-02-15T17:12:36.188Z,44.43
2019-02-15T17:15:09.153Z,313.17
2019-02-15T17:17:39.812Z,284.20
2019-02-15T17:20:08.921Z,181.23
2019-02-15T17:22:37.236Z,236.47
2019-02-15T17:25:09.975Z,213.47
2019-02-15T17:27:38.123Z,129.83
2019-02-15T17:30:07.831Z,83.70
2019-02-15T17:32:35.993Z,24.33
2019-02-15T17:35:04.916Z,142.87
2019-02-15T17:37:33.036Z,142.23
2019-02-15T17:40:01.155Z,226.97
2019-02-15T17:42:29.287Z,281.87
2019-02-15T17:44:57.434Z,163.77
2019-02-15T17:47:25.601Z,316.20
2019-02-15T17:49:53.792Z,259.20
2019-02-15T17:52:21.917Z,318.53
2019-02-15T17:54:50.028Z,322.77
2019-02-15T17:57:18.199Z,340.10
2019-02-15T17:59:46.332Z,345.37
2019-02-15T18:02:14.554Z,374.30
2019-02-15T18:04:42.716Z,381.07
2019-02-15T18:07:11.080Z,382.97
2019-02-15T18:09:39.346Z,240.57
2019-02-15T18:12:07.558Z,436.27
2019-02-15T18:14:35.725Z,326.63
2019-02-15T18:17:04.149Z,405.87
2019-02-15T18:19:32.377Z,440.93
2019-02-15T18:22:03.471Z,347.53
2019-02-15T18:24:33.162Z,424.60
2019-02-15T18:27:01.316Z,352.37
2019-02-15T18:29:29.469Z,318.10
2019-02-15T18:31:57.607Z,292.00
2019-02-15T18:34:25.769Z,430.67
2019-02-15T18:36:53.988Z,431.03
2019-02-15T18:39:22.189Z,475.53
2019-02-15T18:41:51.275Z,540.50
2019-02-15T18:44:19.528Z,510.53
2019-02-15T18:46:47.659Z,561.07
2019-02-15T18:49:19.395Z,543.63
2019-02-15T18:51:45.664Z,606.80
2019-02-15T18:54:13.845Z,564.37
2019-02-15T18:56:42.040Z,270.47
2019-02-15T18:59:10.189Z,336.97
2019-02-15T19:01:38.317Z,361.70
2019-02-15T19:04:06.428Z,412.50
2019-02-15T19:06:34.591Z,495.77
2019-02-15T19:09:02.994Z,399.40
2019-02-15T19:11:31.353Z,398.40
2019-02-15T19:13:59.519Z,480.30
2019-02-15T19:16:27.687Z,487.00
2019-02-15T19:18:55.898Z,546.03
2019-02-15T19:21:24.059Z,573.23
2019-02-15T19:23:52.194Z,623.70
2019-02-15T19:26:20.348Z,640.20
2019-02-15T19:28:48.563Z,644.97
2019-02-15T19:31:16.712Z,676.07
2019-02-15T19:33:44.939Z,665.83
2019-02-15T19:36:13.082Z,653.50
2019-02-15T19:38:41.216Z,661.13
2019-02-15T19:41:09.677Z,659.58
2019-02-15T19:43:37.807Z,649.10
2019-02-15T19:46:05.980Z,658.13
2019-02-15T19:48:34.178Z,654.20
2019-02-15T19:51:02.382Z,674.07
2019-02-15T19:53:30.508Z,666.73
2019-02-15T19:59:27.577Z,645.87
2019-02-15T20:01:55.733Z,642.87
2019-02-15T20:04:23.926Z,665.40
2019-02-15T20:08:00.793Z,628.27
